createdAt,value
2023-01-23T00:02:57.401Z,85.11
2023-01-23T00:07:56.693Z,85.10
2023-01-23T00:12:57.724Z,85.10
2023-01-23T00:17:58.270Z,85.10
2023-01-23T00:22:57.580Z,85.01
2023-01-23T00:27:56.723Z,84.99
2023-01-23T00:32:56.456Z,85.08
2023-01-23T00:37:59.507Z,85.14
2023-01-23T00:43:00.034Z,85.17
2023-01-23T00:47:59.131Z,85.22
2023-01-23T00:52:58.465Z,85.31
2023-01-23T00:57:58.230Z,85.29
2023-01-23T01:02:57.269Z,85.31
2023-01-23T01:07:57.198Z,85.33
2023-01-23T01:12:56.795Z,85.32
2023-01-23T01:17:56.279Z,85.36
2023-01-23T01:22:56.804Z,85.36
2023-01-23T01:27:56.212Z,85.36
2023-01-23T01:32:58.888Z,85.30
2023-01-23T01:37:58.080Z,85.31
2023-01-23T01:43:02.416Z,85.38
2023-01-23T01:48:01.868Z,85.42
2023-01-23T01:53:01.935Z,85.42
2023-01-23T01:58:01.627Z,85.41
2023-01-23T02:03:06.510Z,85.46
2023-01-23T02:08:14.945Z,85.51
2023-01-23T02:13:33.818Z,85.50
2023-01-23T02:18:37.704Z,85.50
2023-01-23T02:23:53.504Z,85.50
2023-01-23T02:28:57.438Z,85.50
2023-01-23T02:34:02.372Z,85.50
2023-01-23T02:39:16.658Z,85.49
2023-01-23T02:44:26.508Z,85.40
2023-01-23T02:49:29.622Z,85.43
2023-01-23T02:54:31.847Z,85.40
2023-01-23T02:59:51.285Z,85.48
2023-01-23T03:04:50.601Z,85.50
2023-01-23T03:09:49.971Z,85.50
2023-01-23T03:14:54.283Z,85.53
2023-01-23T03:19:54.088Z,85.57
2023-01-23T03:24:54.282Z,85.61
2023-01-23T03:30:10.984Z,85.61
2023-01-23T03:35:14.293Z,85.60
2023-01-23T03:40:39.612Z,85.60
2023-01-23T03:45:39.059Z,85.66
2023-01-23T03:50:39.343Z,85.70
2023-01-23T03:55:39.003Z,85.71
2023-01-23T04:00:38.434Z,85.70
2023-01-23T04:05:38.626Z,85.68
2023-01-23T04:10:37.987Z,85.61
2023-01-23T04:15:43.255Z,85.63
2023-01-23T04:20:44.746Z,85.72
2023-01-23T04:25:43.577Z,85.54
2023-01-23T04:30:46.921Z,85.54
2023-01-23T04:36:01.726Z,85.51
2023-01-23T04:41:02.352Z,85.55
2023-01-23T04:46:03.354Z,85.51
2023-01-23T04:51:29.059Z,85.51
2023-01-23T04:56:28.368Z,85.60
2023-01-23T05:01:28.470Z,85.68
2023-01-23T05:06:31.243Z,85.67
2023-01-23T05:11:31.487Z,85.68
2023-01-23T05:16:32.611Z,85.69
2023-01-23T05:21:57.799Z,85.69
2023-01-23T05:26:59.804Z,85.63
2023-01-23T05:32:01.775Z,85.47
2023-01-23T05:37:10.450Z,85.46
2023-01-23T05:42:12.428Z,85.43
2023-01-23T05:47:30.215Z,85.44
2023-01-23T05:52:30.046Z,85.42
2023-01-23T05:57:29.587Z,85.50
2023-01-23T06:02:48.495Z,85.50
2023-01-23T06:07:56.974Z,85.51
2023-01-23T06:12:56.789Z,85.50
2023-01-23T06:17:56.335Z,85.55
2023-01-23T06:22:57.163Z,85.50
2023-01-23T06:27:56.602Z,85.53
2023-01-23T06:32:57.342Z,85.56
2023-01-23T06:38:03.758Z,85.52
2023-01-23T06:43:03.642Z,85.53
2023-01-23T06:48:03.661Z,85.57
2023-01-23T06:53:03.171Z,85.51
2023-01-23T06:58:03.184Z,85.49
2023-01-23T07:03:23.632Z,85.50
2023-01-23T07:08:23.502Z,85.50
2023-01-23T07:13:22.585Z,85.49
2023-01-23T07:18:23.169Z,85.50
2023-01-23T07:23:23.790Z,85.43
2023-01-23T07:28:23.029Z,85.34
2023-01-23T07:33:22.077Z,85.36
2023-01-23T07:38:23.566Z,85.29
2023-01-23T07:43:23.252Z,85.25
2023-01-23T07:48:22.502Z,85.26
2023-01-23T07:53:21.906Z,85.25
2023-01-23T07:58:21.144Z,85.21
2023-01-23T08:03:21.041Z,85.23
2023-01-23T08:08:20.659Z,85.30
2023-01-23T08:13:20.694Z,85.28
2023-01-23T08:18:20.191Z,85.21
2023-01-23T08:23:19.433Z,85.20
2023-01-23T08:28:18.563Z,85.17
2023-01-23T08:33:23.384Z,85.11
2023-01-23T08:38:24.676Z,85.00
2023-01-23T08:43:24.724Z,85.04
2023-01-23T08:48:26.121Z,85.01
2023-01-23T08:53:25.615Z,84.97
2023-01-23T08:58:25.113Z,84.99
2023-01-23T09:03:24.651Z,85.01
2023-01-23T09:08:24.174Z,85.07
2023-01-23T09:13:23.681Z,85.03
2023-01-23T09:18:25.160Z,85.03
2023-01-23T09:23:26.919Z,85.01
2023-01-23T09:28:26.390Z,84.99
2023-01-23T09:33:27.390Z,84.97
2023-01-23T09:38:27.429Z,84.82
2023-01-23T09:43:37.273Z,84.68
2023-01-23T09:48:47.773Z,84.68
2023-01-23T09:53:47.035Z,84.75
2023-01-23T09:59:02.770Z,84.71
2023-01-23T10:04:05.006Z,84.64
2023-01-23T10:09:32.146Z,84.57
2023-01-23T10:15:08.251Z,84.51
2023-01-23T10:20:40.122Z,84.33
2023-01-23T10:25:43.159Z,84.19
2023-01-23T10:30:48.311Z,84.14
2023-01-23T10:35:53.904Z,84.14
2023-01-23T10:41:12.471Z,84.11
2023-01-23T10:46:19.171Z,83.97
2023-01-23T10:51:52.162Z,83.90
2023-01-23T10:57:00.013Z,83.77
2023-01-23T11:02:22.589Z,83.69
2023-01-23T11:07:27.145Z,83.61
2023-01-23T11:12:29.488Z,83.47
2023-01-23T11:17:36.266Z,83.58
2023-01-23T11:23:01.024Z,83.56
2023-01-23T11:28:05.630Z,83.45
2023-01-23T11:33:14.574Z,83.35
2023-01-23T11:38:30.239Z,83.26
2023-01-23T11:43:29.834Z,83.29
2023-01-23T11:48:59.322Z,83.25
2023-01-23T11:54:18.409Z,83.21
2023-01-23T12:00:00.124Z,83.15
2023-01-23T12:05:39.437Z,82.99
2023-01-23T12:10:56.122Z,82.82
2023-01-23T12:16:11.839Z,82.70
2023-01-23T12:21:23.215Z,82.82
2023-01-23T12:26:25.763Z,82.76
2023-01-23T12:31:43.067Z,82.69
2023-01-23T12:37:14.146Z,82.61
2023-01-23T12:42:22.974Z,82.63
2023-01-23T12:47:28.996Z,82.64
2023-01-23T12:52:37.314Z,82.60
2023-01-23T12:57:58.949Z,82.56
2023-01-23T13:03:21.840Z,82.46
2023-01-23T13:08:37.856Z,82.37
2023-01-23T13:13:38.219Z,82.21
2023-01-23T13:18:52.255Z,82.36
2023-01-23T13:24:13.050Z,82.37
2023-01-23T13:29:52.845Z,82.39
2023-01-23T13:34:52.523Z,82.45
2023-01-23T13:40:17.109Z,82.27
2023-01-23T13:45:31.546Z,82.20
2023-01-23T14:22:44.914Z,82.41
2023-01-23T14:27:52.899Z,82.46
2023-01-23T14:32:53.456Z,82.54
2023-01-23T14:37:57.027Z,82.63
2023-01-23T14:43:03.924Z,82.70
2023-01-23T14:48:07.285Z,82.80
2023-01-23T14:53:13.265Z,82.79
2023-01-23T14:58:20.841Z,82.78
2023-01-23T15:03:41.169Z,82.79
2023-01-23T15:08:41.464Z,82.86
2023-01-23T15:13:50.523Z,82.89
2023-01-23T15:19:01.558Z,82.94
2023-01-23T15:24:32.860Z,83.00
2023-01-23T15:29:33.412Z,83.01
2023-01-23T15:34:35.995Z,83.00
2023-01-23T15:39:53.178Z,83.00
2023-01-23T15:44:52.984Z,83.03
2023-01-23T15:49:54.854Z,83.16
2023-01-23T15:54:58.224Z,83.19
2023-01-23T15:59:57.955Z,83.20
2023-01-23T16:04:57.604Z,83.21
2023-01-23T16:09:58.051Z,83.20
2023-01-23T16:15:00.247Z,83.26
2023-01-23T16:20:06.296Z,83.28
2023-01-23T16:25:05.856Z,83.22
2023-01-23T16:30:05.255Z,83.24
2023-01-23T16:35:05.483Z,83.33
2023-01-23T16:40:06.147Z,83.40
2023-01-23T16:45:11.050Z,83.43
2023-01-23T16:50:14.482Z,83.44
2023-01-23T16:55:27.230Z,83.40
2023-01-23T17:00:34.753Z,83.38
2023-01-23T17:05:34.249Z,83.36
2023-01-23T17:10:45.502Z,83.37
2023-01-23T17:15:46.895Z,83.40
2023-01-23T17:20:46.434Z,83.46
2023-01-23T17:25:59.774Z,83.43
2023-01-23T17:31:02.881Z,83.40
2023-01-23T17:36:04.764Z,83.29
2023-01-23T17:41:06.679Z,83.18
2023-01-23T17:46:08.395Z,83.18
2023-01-23T17:51:11.185Z,83.06
2023-01-23T17:56:13.399Z,83.12
2023-01-23T18:01:23.905Z,83.21
2023-01-23T18:06:30.515Z,83.21
2023-01-23T18:11:30.883Z,83.13
2023-01-23T18:16:39.958Z,83.00
2023-01-23T18:21:47.907Z,83.00
2023-01-23T18:27:15.958Z,83.07
2023-01-23T18:32:43.828Z,83.10
2023-01-23T18:37:58.832Z,83.13
2023-01-23T18:43:18.754Z,83.19
2023-01-23T18:48:25.649Z,83.22
2023-01-23T18:53:47.754Z,83.29
2023-01-23T18:59:11.689Z,83.22
2023-01-23T19:04:18.079Z,83.22
2023-01-23T19:09:25.052Z,83.21
2023-01-23T19:14:47.990Z,83.18
2023-01-23T19:20:02.030Z,83.08
2023-01-23T19:25:05.894Z,83.07
2023-01-23T19:30:11.128Z,83.03
2023-01-23T19:35:14.224Z,83.01
2023-01-23T19:40:20.231Z,83.04
2023-01-23T19:45:23.342Z,83.08
2023-01-23T19:50:29.777Z,83.05
2023-01-23T19:55:35.287Z,83.07
2023-01-23T20:00:37.445Z,83.05
2023-01-23T20:05:38.085Z,83.11
2023-01-23T20:10:37.546Z,83.10
2023-01-23T20:15:38.227Z,83.10
2023-01-23T20:20:42.507Z,83.10
2023-01-23T20:25:42.645Z,83.10
2023-01-23T20:30:43.319Z,83.07
2023-01-23T20:35:44.134Z,83.10
2023-01-23T20:40:43.794Z,83.15
2023-01-23T20:45:51.043Z,83.14
2023-01-23T20:50:56.280Z,83.27
2023-01-23T20:56:00.519Z,83.31
2023-01-23T21:01:00.776Z,83.35
2023-01-23T21:06:01.324Z,83.40
2023-01-23T21:11:00.358Z,83.41
2023-01-23T21:16:06.123Z,83.50
2023-01-23T21:21:10.811Z,83.50
2023-01-23T21:26:10.486Z,83.50
2023-01-23T21:31:18.021Z,83.58
2023-01-23T21:36:22.763Z,83.61
2023-01-23T21:41:25.265Z,83.68
2023-01-23T21:46:51.580Z,83.62
2023-01-23T21:51:52.828Z,83.60
2023-01-23T21:56:57.750Z,83.62
2023-01-23T22:02:17.382Z,83.68
2023-01-23T22:07:18.459Z,83.68
2023-01-23T22:12:18.445Z,83.71
2023-01-23T22:17:18.290Z,83.69
2023-01-23T22:22:19.809Z,83.65
2023-01-23T22:27:18.697Z,83.71
2023-01-23T22:32:18.950Z,83.75
2023-01-23T22:37:20.434Z,83.79
2023-01-23T22:42:22.026Z,83.87
2023-01-23T22:47:21.563Z,83.85
2023-01-23T22:52:21.168Z,83.79
2023-01-23T22:57:20.274Z,83.85
2023-01-23T23:02:20.020Z,83.82
2023-01-23T23:07:19.256Z,83.78
2023-01-23T23:12:18.764Z,83.86
2023-01-23T23:17:18.879Z,83.83
2023-01-23T23:22:18.273Z,83.85
2023-01-23T23:27:17.965Z,83.88
2023-01-23T23:32:19.432Z,83.86
2023-01-23T23:37:20.166Z,83.86
2023-01-23T23:42:18.880Z,83.87
2023-01-23T23:47:18.529Z,83.85
2023-01-23T23:52:17.765Z,83.89
2023-01-23T23:57:17.216Z,83.91
